Wallingford, Pennsylvania
Current Conditions -  °F | °C
As of 7:54 AM on Thursday 30 Oct 2014 (Local Time) from KPHL Reporting Station
Broken Clouds Broken Clouds  
Wind Chill: 43°   Ceiling: 7500
Heat Index: 47°   Visibility: 10mi
Dew Point: 42°   Wind: 8mph
Humidity: 83%   Direction: 330°NNW
Pressure: 30.01"   Gusts: NA
Location:  39.89°N, 75.36°W
Report Text: KPHL 301154Z 33007KT 10SM BKN075 08/06 A3001 RMK AO2 SLP160 70003 T00830056 10100 20072 51009
Loading
Personal Weather Stations






























Interactive Weather Map
Tropical Storm Tracking
New forecast layout! Learn more

10-Day Weather Forecast

Advertisements
Track Severe Weather on mobile